createdAt,value
2023-02-14T00:00:29.430Z,31.77
2023-02-14T00:02:57.076Z,32.90
2023-02-14T00:05:23.961Z,34.67
2023-02-14T00:07:50.606Z,32.65
2023-02-14T00:10:17.616Z,32.13
2023-02-14T00:12:44.146Z,34.58
2023-02-14T00:15:23.618Z,35.65
2023-02-14T00:17:51.767Z,34.90
2023-02-14T00:20:18.878Z,34.72
2023-02-14T00:22:45.375Z,34.72
2023-02-14T00:25:12.445Z,35.03
2023-02-14T00:27:39.287Z,36.33
2023-02-14T00:30:09.546Z,36.88
2023-02-14T00:32:41.860Z,36.90
2023-02-14T00:35:09.919Z,41.15
2023-02-14T00:37:37.961Z,42.13
2023-02-14T00:40:06.227Z,39.50
2023-02-14T00:42:32.926Z,42.05
2023-02-14T00:44:59.494Z,40.95
2023-02-14T00:47:26.213Z,40.08
2023-02-14T00:49:52.760Z,41.35
2023-02-14T00:52:19.328Z,39.58
2023-02-14T00:54:45.921Z,41.42
2023-02-14T00:57:13.946Z,39.72
2023-02-14T00:59:40.545Z,41.72
2023-02-14T01:02:07.194Z,41.88
2023-02-14T01:04:34.372Z,41.67
2023-02-14T01:07:01.012Z,40.33
2023-02-14T01:09:27.622Z,41.70
2023-02-14T01:11:54.124Z,40.45
2023-02-14T01:14:20.653Z,37.55
2023-02-14T01:16:49.393Z,33.03
2023-02-14T01:19:16.614Z,35.88
2023-02-14T01:21:43.785Z,35.78
2023-02-14T01:24:11.889Z,32.47
2023-02-14T01:26:39.271Z,31.98
2023-02-14T01:29:06.338Z,34.05
2023-02-14T01:31:34.669Z,33.22
2023-02-14T01:34:02.201Z,32.30
2023-02-14T01:36:35.102Z,34.13
2023-02-14T01:39:05.335Z,32.10
2023-02-14T01:41:34.612Z,32.30
2023-02-14T01:44:02.806Z,31.90
2023-02-14T01:46:33.424Z,31.50
2023-02-14T01:49:18.458Z,31.65
2023-02-14T01:51:52.760Z,33.22
2023-02-14T01:54:22.520Z,32.00
2023-02-14T01:56:54.301Z,30.80
2023-02-14T01:59:23.958Z,31.15
2023-02-14T02:01:53.266Z,31.70
2023-02-14T02:04:26.051Z,32.17
2023-02-14T02:06:57.221Z,32.38
2023-02-14T02:09:33.300Z,29.23
2023-02-14T02:12:01.112Z,29.90
2023-02-14T02:14:28.464Z,26.50
2023-02-14T02:17:20.727Z,31.20
2023-02-14T02:20:06.385Z,30.90
2023-02-14T02:22:51.744Z,30.83
2023-02-14T02:26:07.129Z,27.55
2023-02-14T02:28:58.921Z,29.25
2023-02-14T02:31:37.760Z,29.17
2023-02-14T02:34:34.587Z,31.05
2023-02-14T02:37:03.131Z,30.85
2023-02-14T02:39:54.313Z,28.60
2023-02-14T02:42:38.952Z,26.55
2023-02-14T02:45:12.150Z,30.40
2023-02-14T02:47:47.048Z,26.67
2023-02-14T02:50:47.445Z,26.95
2023-02-14T02:53:30.277Z,25.05
2023-02-14T02:56:28.379Z,26.63
2023-02-14T02:59:02.276Z,25.98
2023-02-14T03:01:37.532Z,26.50
2023-02-14T03:04:26.314Z,24.42
2023-02-14T03:06:53.281Z,24.13
2023-02-14T03:09:19.764Z,24.13
2023-02-14T03:11:57.407Z,26.33
2023-02-14T03:14:39.109Z,25.52
2023-02-14T03:17:22.465Z,24.95
2023-02-14T03:20:13.850Z,24.67
2023-02-14T03:23:04.077Z,25.07
2023-02-14T03:25:55.196Z,26.33
2023-02-14T03:28:40.433Z,24.92
2023-02-14T03:31:46.568Z,24.92
2023-02-14T03:34:27.011Z,24.08
2023-02-14T03:37:09.365Z,23.83
2023-02-14T03:40:08.410Z,25.77
2023-02-14T03:42:43.882Z,25.83
2023-02-14T03:45:16.657Z,26.65
2023-02-14T03:47:45.631Z,25.80
2023-02-14T03:50:18.389Z,25.88
2023-02-14T03:52:49.074Z,25.85
2023-02-14T03:55:19.457Z,26.38
2023-02-14T03:58:01.946Z,25.25
2023-02-14T04:00:30.234Z,25.25
2023-02-14T04:03:02.070Z,26.83
2023-02-14T04:05:28.703Z,25.73
2023-02-14T04:07:57.828Z,24.95
2023-02-14T04:10:25.433Z,25.00
2023-02-14T04:12:52.192Z,24.95
2023-02-14T04:15:18.714Z,24.83
2023-02-14T04:18:03.528Z,25.30
2023-02-14T04:20:30.440Z,26.70
2023-02-14T04:22:57.516Z,26.38
2023-02-14T04:25:24.261Z,26.98
2023-02-14T04:27:50.859Z,27.02
2023-02-14T04:30:21.687Z,24.58
2023-02-14T04:32:48.680Z,25.02
2023-02-14T04:35:15.582Z,26.67
2023-02-14T04:37:42.415Z,22.08
2023-02-14T04:40:09.491Z,24.02
2023-02-14T04:42:36.044Z,25.48
2023-02-14T04:45:04.183Z,25.35
2023-02-14T04:47:30.953Z,23.08
2023-02-14T04:49:57.863Z,23.65
2023-02-14T04:52:24.443Z,25.40
2023-02-14T04:54:50.950Z,24.10
2023-02-14T04:57:17.588Z,25.27
2023-02-14T04:59:44.166Z,24.83
2023-02-14T05:02:10.751Z,24.42
2023-02-14T05:04:37.384Z,25.27
2023-02-14T05:07:03.995Z,26.45
2023-02-14T05:09:30.512Z,23.98
2023-02-14T05:11:57.044Z,27.63
2023-02-14T05:14:23.598Z,27.10
2023-02-14T05:16:50.126Z,24.73
2023-02-14T05:19:16.669Z,24.55
2023-02-14T05:21:43.161Z,26.52
2023-02-14T05:24:09.709Z,25.35
2023-02-14T05:26:36.328Z,26.58
2023-02-14T05:29:02.814Z,23.80
2023-02-14T05:31:29.496Z,26.13
2023-02-14T05:33:56.118Z,25.75
2023-02-14T05:36:22.702Z,27.27
2023-02-14T05:38:49.203Z,26.08
2023-02-14T05:41:15.744Z,26.83
2023-02-14T05:43:42.291Z,24.83
2023-02-14T05:46:09.221Z,24.67
2023-02-14T05:48:35.787Z,25.65
2023-02-14T05:51:06.764Z,26.60
2023-02-14T05:53:34.118Z,20.85
2023-02-14T05:56:00.749Z,25.17
2023-02-14T05:58:27.617Z,26.55
2023-02-14T06:00:54.158Z,28.20
2023-02-14T06:03:20.714Z,26.83
2023-02-14T06:05:47.313Z,27.27
2023-02-14T06:08:13.870Z,27.98
2023-02-14T06:10:40.382Z,25.20
2023-02-14T06:13:08.847Z,25.80
2023-02-14T06:15:36.401Z,26.00
2023-02-14T06:18:04.395Z,25.85
2023-02-14T06:20:31.359Z,26.90
2023-02-14T06:22:57.996Z,26.92
2023-02-14T06:25:25.414Z,26.65
2023-02-14T06:27:55.105Z,26.63
2023-02-14T06:30:21.770Z,26.38
2023-02-14T06:32:50.113Z,26.13
2023-02-14T06:35:16.772Z,27.70
2023-02-14T06:37:45.145Z,26.95
2023-02-14T06:40:12.620Z,27.48
2023-02-14T06:42:39.293Z,26.38
2023-02-14T06:45:06.229Z,27.85
2023-02-14T06:47:34.871Z,29.83
2023-02-14T06:50:04.785Z,36.03
2023-02-14T06:52:32.556Z,41.55
2023-02-14T06:54:59.134Z,41.65
2023-02-14T06:57:25.677Z,39.13
2023-02-14T06:59:52.282Z,42.28
2023-02-14T07:02:18.968Z,42.40
2023-02-14T07:04:45.630Z,42.70
2023-02-14T07:07:12.253Z,41.10
2023-02-14T07:09:38.874Z,38.85
2023-02-14T07:12:05.650Z,37.85
2023-02-14T07:14:32.199Z,36.85
2023-02-14T07:16:58.753Z,34.90
2023-02-14T07:19:25.270Z,34.95
2023-02-14T07:21:51.882Z,36.58
2023-02-14T07:24:18.980Z,34.05
2023-02-14T07:26:45.504Z,33.20
2023-02-14T07:29:12.363Z,31.73
2023-02-14T07:31:39.120Z,32.00
2023-02-14T07:34:05.674Z,30.27
2023-02-14T07:36:32.185Z,30.83
2023-02-14T07:38:58.725Z,28.70
2023-02-14T07:41:25.280Z,20.02
2023-02-14T07:43:51.843Z,19.42
2023-02-14T07:46:18.480Z,23.77
2023-02-14T07:48:45.116Z,27.45
2023-02-14T07:51:11.733Z,33.88
2023-02-14T07:53:38.229Z,28.60
2023-02-14T07:56:04.954Z,30.67
2023-02-14T07:58:31.536Z,30.92
2023-02-14T08:00:58.567Z,28.02
2023-02-14T08:03:25.239Z,30.00
2023-02-14T08:05:57.566Z,30.58
2023-02-14T08:08:25.928Z,33.33
2023-02-14T08:10:52.503Z,34.50
2023-02-14T08:13:19.090Z,34.60
2023-02-14T08:16:04.247Z,34.13
2023-02-14T08:18:34.981Z,33.22
2023-02-14T08:21:02.391Z,34.65
2023-02-14T08:23:29.602Z,37.72
2023-02-14T08:25:56.454Z,37.65
2023-02-14T08:28:23.895Z,36.13
2023-02-14T08:30:51.086Z,31.55
2023-02-14T08:33:18.313Z,22.23
2023-02-14T08:35:44.785Z,32.95
2023-02-14T08:38:11.377Z,32.45
2023-02-14T08:40:38.088Z,31.15
2023-02-14T08:43:06.772Z,31.25
2023-02-14T08:45:33.684Z,29.27
2023-02-14T08:48:08.804Z,31.85
2023-02-14T08:50:36.651Z,29.80
2023-02-14T08:53:11.132Z,30.50
2023-02-14T08:55:37.842Z,32.50
2023-02-14T08:58:04.790Z,30.75
2023-02-14T09:00:32.567Z,31.98
2023-02-14T09:02:59.439Z,36.00
2023-02-14T09:05:26.637Z,31.13
2023-02-14T09:07:55.892Z,29.80
2023-02-14T09:10:23.792Z,32.72
2023-02-14T09:12:50.425Z,32.65
2023-02-14T09:15:17.044Z,35.03
2023-02-14T09:17:43.798Z,37.25
2023-02-14T09:20:12.467Z,35.67
2023-02-14T09:22:39.066Z,35.72
2023-02-14T09:25:06.442Z,37.42
2023-02-14T09:27:33.245Z,36.47
2023-02-14T09:29:59.921Z,37.40
2023-02-14T09:32:27.136Z,34.58
2023-02-14T09:34:53.791Z,35.63
2023-02-14T09:37:39.206Z,36.28
2023-02-14T09:40:06.325Z,36.28
2023-02-14T09:42:51.490Z,35.03
2023-02-14T09:45:24.942Z,39.08
2023-02-14T09:48:06.214Z,33.95
2023-02-14T09:50:35.211Z,36.22
2023-02-14T09:53:07.731Z,37.13
2023-02-14T09:55:47.298Z,36.10
2023-02-14T09:58:19.176Z,38.08
2023-02-14T10:03:16.981Z,34.03
2023-02-14T10:05:52.910Z,36.33
2023-02-14T10:08:41.155Z,39.30
2023-02-14T10:11:16.393Z,36.83
2023-02-14T10:13:48.994Z,35.70
2023-02-14T10:16:27.440Z,39.28
2023-02-14T10:18:56.817Z,36.55
2023-02-14T10:21:32.566Z,37.85
2023-02-14T10:24:22.566Z,37.85
2023-02-14T10:26:52.696Z,35.28
2023-02-14T10:29:20.685Z,36.10
2023-02-14T10:32:00.293Z,34.85
2023-02-14T10:34:48.008Z,34.75
2023-02-14T10:37:42.247Z,34.70
2023-02-14T10:40:45.546Z,35.72
2023-02-14T10:43:31.374Z,34.97
2023-02-14T10:46:03.745Z,35.45
2023-02-14T10:48:51.798Z,33.08
2023-02-14T10:51:50.486Z,33.58
2023-02-14T10:54:21.827Z,33.85
2023-02-14T10:57:17.368Z,34.28
2023-02-14T11:00:01.071Z,34.00
2023-02-14T11:02:33.154Z,34.75
2023-02-14T11:05:02.374Z,32.95
2023-02-14T11:07:29.754Z,31.92
2023-02-14T11:09:57.259Z,34.25
2023-02-14T11:12:41.007Z,32.67
2023-02-14T11:15:13.602Z,33.45
2023-02-14T11:17:42.097Z,32.28
2023-02-14T11:20:27.876Z,33.97
2023-02-14T11:22:54.458Z,33.42
2023-02-14T11:25:29.431Z,31.30
2023-02-14T11:28:02.100Z,32.35
2023-02-14T11:30:37.006Z,30.70
2023-02-14T11:33:04.702Z,30.75
2023-02-14T11:35:35.372Z,32.25
2023-02-14T11:38:05.303Z,30.23
2023-02-14T11:40:34.746Z,31.25
2023-02-14T11:43:18.461Z,29.42
2023-02-14T11:45:47.995Z,32.17
2023-02-14T11:48:38.248Z,30.95
2023-02-14T11:51:16.428Z,31.85
2023-02-14T11:53:51.932Z,32.58
2023-02-14T11:56:20.505Z,31.85
2023-02-14T11:59:03.752Z,32.45
2023-02-14T12:01:36.246Z,33.50
2023-02-14T12:04:27.826Z,33.63
2023-02-14T12:07:14.064Z,32.40
2023-02-14T12:09:42.636Z,33.60
2023-02-14T12:12:18.381Z,31.20
2023-02-14T12:14:45.277Z,27.75
2023-02-14T12:17:11.743Z,28.60
2023-02-14T12:20:10.591Z,31.52
2023-02-14T12:22:46.720Z,32.17
2023-02-14T12:25:22.803Z,31.58
2023-02-14T12:27:58.796Z,30.15
2023-02-14T12:30:28.802Z,31.15
2023-02-14T12:32:56.643Z,28.35
2023-02-14T12:35:50.290Z,31.30
2023-02-14T12:38:44.422Z,31.10
2023-02-14T12:41:20.109Z,30.55
2023-02-14T12:44:05.215Z,30.00
2023-02-14T12:46:58.173Z,28.65
2023-02-14T12:49:52.457Z,31.00
2023-02-14T12:52:40.734Z,30.10
2023-02-14T12:55:26.326Z,28.85
2023-02-14T12:58:14.272Z,30.95
2023-02-14T13:01:07.901Z,30.23
2023-02-14T13:03:46.424Z,28.60
2023-02-14T13:06:22.801Z,26.50
2023-02-14T13:09:14.431Z,27.58
2023-02-14T13:12:12.289Z,28.80
2023-02-14T13:15:16.562Z,30.45
2023-02-14T13:18:07.709Z,28.73
2023-02-14T13:20:44.434Z,26.38
2023-02-14T13:23:17.084Z,27.55
2023-02-14T13:25:51.755Z,29.42
2023-02-14T13:28:20.059Z,29.35
2023-02-14T13:30:46.711Z,29.75
2023-02-14T13:33:34.919Z,27.65
2023-02-14T13:36:04.986Z,30.45
2023-02-14T13:38:32.766Z,30.85
2023-02-14T13:41:02.793Z,29.30
2023-02-14T13:43:45.284Z,30.65
2023-02-14T13:46:13.081Z,30.30
2023-02-14T13:48:40.521Z,27.40
2023-02-14T13:51:09.248Z,28.90
2023-02-14T13:53:38.526Z,29.08
2023-02-14T13:56:17.068Z,29.42
2023-02-14T13:58:53.074Z,27.27
2023-02-14T14:01:42.736Z,29.30
2023-02-14T14:04:31.793Z,30.05
2023-02-14T14:07:04.460Z,28.40
2023-02-14T14:09:43.640Z,29.58
2023-02-14T14:12:28.502Z,29.77
2023-02-14T14:15:06.892Z,28.95
2023-02-14T14:17:45.920Z,28.13
2023-02-14T14:20:21.160Z,29.63
2023-02-14T14:22:54.132Z,28.77
2023-02-14T14:25:53.125Z,29.33
2023-02-14T14:28:22.871Z,30.30
2023-02-14T14:30:49.737Z,28.98
2023-02-14T14:33:26.795Z,29.80
2023-02-14T14:36:02.485Z,31.15
2023-02-14T14:38:30.726Z,28.83
2023-02-14T14:40:57.753Z,29.15
2023-02-14T14:43:26.612Z,29.67
2023-02-14T14:45:56.085Z,28.77
2023-02-14T14:48:41.016Z,31.80
2023-02-14T14:51:16.546Z,33.47
2023-02-14T14:53:48.740Z,30.20
2023-02-14T14:56:27.986Z,30.60
2023-02-14T14:58:54.820Z,29.63
2023-02-14T15:01:39.961Z,30.65
2023-02-14T15:04:12.044Z,30.02
2023-02-14T15:06:39.898Z,32.85
2023-02-14T15:09:33.671Z,28.65
2023-02-14T15:12:21.529Z,30.23
2023-02-14T15:14:54.421Z,30.90
2023-02-14T15:17:25.412Z,31.15
2023-02-14T15:19:56.426Z,30.23
2023-02-14T15:22:29.750Z,32.63
2023-02-14T15:24:58.028Z,29.55
2023-02-14T15:27:27.047Z,29.30
2023-02-14T15:29:58.968Z,28.58
2023-02-14T15:32:29.959Z,32.25
2023-02-14T15:34:57.227Z,29.83
2023-02-14T15:37:25.379Z,34.13
2023-02-14T15:39:55.819Z,30.23
2023-02-14T15:42:32.368Z,29.65
2023-02-14T15:45:22.695Z,31.15
2023-02-14T15:47:59.635Z,31.63
2023-02-14T15:50:32.099Z,30.90
2023-02-14T15:53:42.707Z,29.23
2023-02-14T15:56:18.325Z,29.40
2023-02-14T15:58:45.504Z,30.40
2023-02-14T16:01:12.317Z,29.25
2023-02-14T16:03:51.697Z,32.63
2023-02-14T16:06:39.802Z,30.30
2023-02-14T16:09:24.302Z,31.08
2023-02-14T16:11:50.966Z,33.65
2023-02-14T16:14:29.234Z,34.83
2023-02-14T16:17:06.828Z,30.15
2023-02-14T16:19:44.730Z,34.78
2023-02-14T16:22:24.065Z,33.22
2023-02-14T16:24:50.854Z,33.85
2023-02-14T16:27:17.495Z,32.85
2023-02-14T16:29:44.039Z,32.15
2023-02-14T16:32:18.558Z,32.92
2023-02-14T16:34:47.191Z,32.70
2023-02-14T16:37:26.033Z,32.38
2023-02-14T16:39:54.519Z,33.15
2023-02-14T16:42:21.212Z,31.17
2023-02-14T16:44:47.846Z,32.20
2023-02-14T16:47:16.041Z,37.33
2023-02-14T16:49:42.661Z,37.33
2023-02-14T16:52:26.204Z,39.08
2023-02-14T16:54:53.377Z,39.78
2023-02-14T16:57:28.124Z,40.15
2023-02-14T16:59:56.328Z,41.95
2023-02-14T17:02:26.259Z,44.53
2023-02-14T17:04:52.887Z,43.15
2023-02-14T17:07:20.773Z,42.03
2023-02-14T17:09:55.858Z,43.90
2023-02-14T17:12:27.070Z,42.58
2023-02-14T17:14:56.875Z,43.65
2023-02-14T17:17:23.402Z,47.30
2023-02-14T17:19:52.541Z,45.85
2023-02-14T17:22:19.516Z,39.38
2023-02-14T17:24:46.008Z,41.30
2023-02-14T17:27:12.565Z,41.35
2023-02-14T17:29:39.116Z,37.25
2023-02-14T17:32:05.699Z,36.72
2023-02-14T17:34:33.052Z,39.45
2023-02-14T17:36:59.722Z,37.20
2023-02-14T17:39:26.728Z,38.50
2023-02-14T17:41:53.430Z,37.63
2023-02-14T17:44:20.064Z,39.60
2023-02-14T17:46:46.651Z,37.50
2023-02-14T17:49:13.209Z,39.50
2023-02-14T17:51:39.736Z,34.17
2023-02-14T17:54:06.402Z,39.92
2023-02-14T17:56:32.970Z,39.58
2023-02-14T17:58:59.846Z,38.08
2023-02-14T18:01:31.389Z,36.47
2023-02-14T18:03:58.084Z,38.45
2023-02-14T18:06:26.453Z,36.30
2023-02-14T18:08:56.688Z,38.25
2023-02-14T18:11:26.083Z,39.20
2023-02-14T18:13:56.699Z,42.58
2023-02-14T18:16:24.702Z,44.97
2023-02-14T18:18:51.624Z,43.08
2023-02-14T18:21:20.860Z,45.25
2023-02-14T18:23:47.824Z,46.15
2023-02-14T18:26:15.705Z,42.83
2023-02-14T18:28:42.492Z,49.28
2023-02-14T18:31:15.354Z,47.17
2023-02-14T18:33:42.654Z,46.35
2023-02-14T18:36:12.143Z,46.25
2023-02-14T18:38:40.420Z,44.40
2023-02-14T18:41:09.564Z,47.70
2023-02-14T18:43:36.806Z,44.10
2023-02-14T18:46:08.006Z,41.00
2023-02-14T18:48:34.837Z,42.30
2023-02-14T18:51:32.061Z,41.60
2023-02-14T18:54:00.701Z,43.00
2023-02-14T18:56:30.367Z,44.20
2023-02-14T18:58:59.448Z,44.10
2023-02-14T19:01:31.236Z,46.83
2023-02-14T19:06:30.457Z,45.03
2023-02-14T19:08:57.400Z,44.15
2023-02-14T19:11:28.587Z,48.33
2023-02-14T19:13:57.676Z,48.03
2023-02-14T19:16:29.792Z,49.25
2023-02-14T19:18:56.741Z,47.90
2023-02-14T19:21:25.913Z,53.05
2023-02-14T19:23:54.871Z,53.03
2023-02-14T19:26:29.871Z,54.38
2023-02-14T19:28:58.356Z,51.72
2023-02-14T19:31:26.156Z,55.35
2023-02-14T19:33:52.949Z,55.22
2023-02-14T19:36:21.344Z,55.08
2023-02-14T19:38:51.460Z,52.28
2023-02-14T19:41:31.017Z,51.25
2023-02-14T19:43:58.688Z,53.40
2023-02-14T19:46:26.449Z,54.03
2023-02-14T19:48:53.543Z,50.63
2023-02-14T19:51:25.661Z,44.45
2023-02-14T19:53:52.876Z,47.38
2023-02-14T19:56:28.428Z,42.42
2023-02-14T19:58:56.094Z,42.03
2023-02-14T20:01:28.801Z,42.38
2023-02-14T20:03:55.360Z,42.88
2023-02-14T20:06:22.485Z,41.70
2023-02-14T20:08:49.409Z,40.85
2023-02-14T20:11:41.264Z,42.97
2023-02-14T20:14:08.816Z,42.33
2023-02-14T20:16:36.867Z,42.45
2023-02-14T20:19:07.831Z,39.08
2023-02-14T20:21:35.049Z,43.83
2023-02-14T20:24:03.132Z,39.75
2023-02-14T20:26:31.294Z,41.63
2023-02-14T20:29:06.082Z,38.15
2023-02-14T20:31:34.145Z,39.53
2023-02-14T20:34:01.462Z,40.72
2023-02-14T20:36:28.194Z,42.50
2023-02-14T20:38:56.215Z,41.13
2023-02-14T20:41:23.136Z,41.67
2023-02-14T20:43:49.647Z,40.45
2023-02-14T20:46:16.165Z,40.08
2023-02-14T20:48:42.762Z,44.65
2023-02-14T20:51:18.687Z,39.42
2023-02-14T20:53:46.343Z,43.15
2023-02-14T20:56:14.290Z,42.63
2023-02-14T20:58:41.425Z,44.67
2023-02-14T21:01:10.430Z,48.55
2023-02-14T21:03:37.837Z,44.13
2023-02-14T21:06:06.643Z,43.20
2023-02-14T21:08:33.659Z,45.58
2023-02-14T21:11:00.574Z,49.58
2023-02-14T21:13:27.248Z,55.08
2023-02-14T21:15:54.046Z,52.08
2023-02-14T21:18:20.840Z,53.45
2023-02-14T21:20:47.396Z,54.20
2023-02-14T21:23:13.934Z,54.15
2023-02-14T21:25:40.454Z,54.50
2023-02-14T21:28:06.939Z,53.90
2023-02-14T21:30:33.490Z,56.58
2023-02-14T21:33:00.175Z,52.42
2023-02-14T21:35:26.684Z,57.58
2023-02-14T21:37:53.346Z,54.22
2023-02-14T21:40:19.991Z,53.67
2023-02-14T21:42:46.509Z,51.60
2023-02-14T21:45:32.395Z,56.75
2023-02-14T21:48:17.224Z,56.10
2023-02-14T21:50:43.703Z,53.97
2023-02-14T21:53:10.266Z,54.55
2023-02-14T21:55:38.446Z,55.13
2023-02-14T21:58:04.927Z,52.63
2023-02-14T22:00:31.441Z,50.70
2023-02-14T22:02:58.070Z,52.33
2023-02-14T22:05:25.202Z,53.63
2023-02-14T22:07:51.789Z,51.35
2023-02-14T22:10:18.322Z,51.88
2023-02-14T22:12:44.903Z,49.80
2023-02-14T22:15:11.467Z,46.60
2023-02-14T22:17:38.358Z,46.10
2023-02-14T22:20:06.266Z,46.22
2023-02-14T22:22:34.505Z,48.70
2023-02-14T22:25:00.997Z,46.08
2023-02-14T22:27:27.614Z,44.13
2023-02-14T22:29:54.117Z,40.92
2023-02-14T22:32:20.784Z,41.05
2023-02-14T22:34:47.488Z,41.33
2023-02-14T22:37:13.999Z,40.30
2023-02-14T22:39:40.604Z,40.92
2023-02-14T22:42:07.163Z,38.20
2023-02-14T22:44:33.645Z,40.42
2023-02-14T22:47:01.168Z,45.65
2023-02-14T22:49:27.707Z,42.97
2023-02-14T22:51:54.246Z,45.42
2023-02-14T22:54:20.849Z,43.13
2023-02-14T22:56:49.126Z,46.03
2023-02-14T22:59:24.290Z,44.40
2023-02-14T23:01:53.320Z,47.80
2023-02-14T23:04:22.181Z,47.10
2023-02-14T23:06:49.256Z,48.60
2023-02-14T23:09:15.922Z,47.55
2023-02-14T23:11:44.154Z,47.78
2023-02-14T23:14:31.549Z,49.55
2023-02-14T23:17:16.953Z,48.03
2023-02-14T23:20:02.740Z,50.03
2023-02-14T23:22:37.270Z,49.78
2023-02-14T23:25:07.140Z,49.42
2023-02-14T23:27:38.637Z,49.80
2023-02-14T23:30:07.359Z,48.17
2023-02-14T23:32:34.138Z,49.88
2023-02-14T23:35:00.641Z,46.35
2023-02-14T23:37:27.300Z,45.10
2023-02-14T23:39:53.882Z,51.80
2023-02-14T23:42:20.491Z,51.60
2023-02-14T23:44:47.523Z,49.88
2023-02-14T23:47:15.127Z,50.28
2023-02-14T23:49:42.094Z,46.47
2023-02-14T23:52:11.161Z,50.30
2023-02-14T23:54:37.896Z,45.67
2023-02-14T23:57:06.161Z,43.90
2023-02-14T23:59:32.976Z,43.33
